Hoegh Traveller — LAUN7 — position and weather

sailwx.info

Track history (hours):
 
Tides and Currents Weather Stations Pressure Air Temp Water Temp Dewpoint Dewpoint Depression Visibility Wind Speed Wind Dir Waves Ship Positions

Hoegh Traveller

Last reported at 2018-Apr-22 18:00 UTC. Time now 2018-Apr-22 18:19 UTC.
Position N 53°35' E 008°33'.

Length 199 m; draft 9.3 m.

MMSI: 259075000.

Date/timePositionNaut miles runAvg speedWind from/ knotsBaromVisibWave heightAir tempDewpointWater temp
2018-Apr-22 18:00N 53°35' E 008°33'0 0.0
2018-Apr-22 17:30N 53°35' E 008°33'0 0.0
2018-Apr-22 17:00N 53°35' E 008°33'0 0.0
2018-Apr-22 16:30N 53°35' E 008°33'0 0.0
2018-Apr-22 16:00N 53°35' E 008°33'0 0.0
2018-Apr-22 15:30N 53°35' E 008°33'0 0.0
2018-Apr-22 14:58N 53°35' E 008°33'0 0.0
2018-Apr-22 14:30N 53°35' E 008°33'0 0.0
2018-Apr-22 14:00N 53°35' E 008°33'0 0.0
2018-Apr-22 13:30N 53°35' E 008°33'0 0.4
2018-Apr-22 13:00N 53°34' E 008°33'0 0.2
2018-Apr-22 12:30N 53°34' E 008°33'0 0.9
2018-Apr-22 12:00N 53°34' E 008°33'2 4.8
2018-Apr-22 11:30N 53°36' E 008°30'714.4
2018-Apr-22 11:00N 53°41' E 008°22'815.6
2018-Apr-22 10:30N 53°46' E 008°11'814.3
2018-Apr-22 09:57N 53°51' E 008°01'812.5
2018-Apr-22 09:20N 53°52' E 007°48'411.4
2018-Apr-22 09:00N 53°53' E 007°42'1114.2
2018-Apr-22 08:14N 53°53' E 007°24'3015.6
2018-Apr-22 06:18N 53°46' E 006°34'515.4
2018-Apr-22 06:00N 53°45' E 006°26'1315.7
2018-Apr-22 05:11N 53°42' E 006°05'415.8
2018-Apr-22 04:55N 53°40' E 005°59'915.9
2018-Apr-22 04:22N 53°37' E 005°45'615.8
2018-Apr-22 04:00N 53°36' E 005°35'815.7
2018-Apr-22 03:31N 53°33' E 005°23'815.7
2018-Apr-22 03:01N 53°31' E 005°10'816.3
2018-Apr-22 02:30N 53°28' E 004°57'1016.2
2018-Apr-22 01:52N 53°23' E 004°42'616.7
2018-Apr-22 01:30N 53°18' E 004°38'1016.8
2018-Apr-22 00:55N 53°09' E 004°30'716.8
2018-Apr-22 00:31N 53°03' E 004°24'816.8
2018-Apr-22 00:00N 52°56' E 004°17'916.7
2018-Apr-21 23:29N 52°48' E 004°11'816.8
2018-Apr-21 23:00N 52°42' E 004°01'816.8
2018-Apr-21 22:31N 52°36' E 003°52'816.9
2018-Apr-21 22:00N 52°30' E 003°43'917.3
2018-Apr-21 21:30N 52°23' E 003°35'917.5
2018-Apr-21 21:00N 52°15' E 003°29'1017.2
2018-Apr-21 20:24N 52°05' E 003°25'717.2
2018-Apr-21 20:00N 51°58' E 003°24'917.0
2018-Apr-21 19:29N 51°49' E 003°18'613.2
2018-Apr-21 19:00N 51°43' E 003°17'714.9
2018-Apr-21 18:31N 51°37' E 003°22'714.8
2018-Apr-21 18:00N 51°30' E 003°28'612.0
2018-Apr-21 17:30N 51°26' E 003°35'5 9.3
2018-Apr-21 17:00N 51°25' E 003°42'611.4
2018-Apr-21 16:30N 51°21' E 003°48'510.6
2018-Apr-21 16:00N 51°23' E 003°56'4 8.4
2018-Apr-21 15:30N 51°25' E 004°02'5 9.8
2018-Apr-21 15:00N 51°22' E 004°08'4 7.8
2018-Apr-21 14:30N 51°22' E 004°14'4 7.7
2018-Apr-21 14:00N 51°18' E 004°16'2 3.1
2018-Apr-21 13:30N 51°17' E 004°15'0 0.0
2018-Apr-21 13:00N 51°17' E 004°15'0 0.2
2018-Apr-21 12:23N 51°17' E 004°15'0 1.0
2018-Apr-21 12:00N 51°16' E 004°14'0 0.9
2018-Apr-21 11:30N 51°16' E 004°14'0 0.0
2018-Apr-21 11:00N 51°16' E 004°14'0 0.0
2018-Apr-21 10:31N 51°16' E 004°14'0 0.0
2018-Apr-21 10:00N 51°16' E 004°14'0 0.0
2018-Apr-21 09:29N 51°16' E 004°14'0 0.0
2018-Apr-21 08:59N 51°16' E 004°14'0 0.0
2018-Apr-21 08:24N 51°16' E 004°14'0 0.0
2018-Apr-21 08:00N 51°16' E 004°14'0 0.0
2018-Apr-21 07:30N 51°16' E 004°14'0 0.0
2018-Apr-21 07:00N 51°16' E 004°14'0 0.0
2018-Apr-21 06:31N 51°16' E 004°14'0 0.0
2018-Apr-21 06:00N 51°16' E 004°14'0 0.0
2018-Apr-21 05:30N 51°16' E 004°14'0 0.0
2018-Apr-21 05:00N 51°16' E 004°14'0 0.0
2018-Apr-21 04:31N 51°16' E 004°14'0 0.0
2018-Apr-21 03:55N 51°16' E 004°14'0 0.0
2018-Apr-21 03:30N 51°16' E 004°14'0 0.0
2018-Apr-21 03:00N 51°16' E 004°14'0 0.0
2018-Apr-21 02:30N 51°16' E 004°14'0 0.0
2018-Apr-21 02:00N 51°16' E 004°14'0 0.0
2018-Apr-21 01:30N 51°16' E 004°14'0 0.0
2018-Apr-21 01:00N 51°16' E 004°14'0 0.0
2018-Apr-21 00:25N 51°16' E 004°14'0 0.0
2018-Apr-21 00:00N 51°16' E 004°14'0 0.0
2018-Apr-20 23:30N 51°16' E 004°14'0 0.0
2018-Apr-20 23:00N 51°16' E 004°14'0 0.0
2018-Apr-20 22:30N 51°16' E 004°14'0 0.0
2018-Apr-20 22:00N 51°16' E 004°14'0 0.0
2018-Apr-20 21:20N 51°16' E 004°14'0 0.0
2018-Apr-20 21:00N 51°16' E 004°14'0 0.0
2018-Apr-20 20:30N 51°16' E 004°14'0 0.0
2018-Apr-20 20:00N 51°16' E 004°14'0 0.0
2018-Apr-20 19:31N 51°16' E 004°14'0 0.0
2018-Apr-20 19:00N 51°16' E 004°14'0 0.0
2018-Apr-20 18:30N 51°16' E 004°14'0 0.0
2018-Apr-20 18:00N 51°16' E 004°14'0 0.0
2018-Apr-20 17:30N 51°16' E 004°14'0 0.0
2018-Apr-20 17:00N 51°16' E 004°14'0 0.0
2018-Apr-20 16:26N 51°16' E 004°14'0 0.0
2018-Apr-20 16:00N 51°16' E 004°14'0 0.0
2018-Apr-20 15:26N 51°16' E 004°14'0 0.0
2018-Apr-20 15:00N 51°16' E 004°14'0 0.0
2018-Apr-20 14:30N 51°16' E 004°14'0 0.0
2018-Apr-20 14:00N 51°16' E 004°14'0 0.0
2018-Apr-20 13:30N 51°16' E 004°14'0 0.0
2018-Apr-20 13:00N 51°16' E 004°14'0 0.0
2018-Apr-20 12:31N 51°16' E 004°14'0 0.0
2018-Apr-20 12:00N 51°16' E 004°14'0 0.0
2018-Apr-20 11:30N 51°16' E 004°14'0 0.0
2018-Apr-20 11:00N 51°16' E 004°14'0 0.0
2018-Apr-20 10:30N 51°16' E 004°14'0 0.0
2018-Apr-20 10:00N 51°16' E 004°14'0 0.0
2018-Apr-20 09:26N 51°16' E 004°14'0 0.0
2018-Apr-20 08:56N 51°16' E 004°14'0 0.0
2018-Apr-20 08:27N 51°16' E 004°14'0 0.0
2018-Apr-20 07:58N 51°16' E 004°14'0 0.0
2018-Apr-20 07:28N 51°16' E 004°14'0 0.0
2018-Apr-20 06:58N 51°16' E 004°14'0 0.0
2018-Apr-20 06:28N 51°16' E 004°14'0 0.0
2018-Apr-20 05:58N 51°16' E 004°14'0 0.0
2018-Apr-20 05:28N 51°16' E 004°14'0 0.0
2018-Apr-20 04:58N 51°16' E 004°14'0 0.0
2018-Apr-20 04:28N 51°16' E 004°14'0 0.0
2018-Apr-20 03:58N 51°16' E 004°14'0 0.0
2018-Apr-20 03:30N 51°16' E 004°14'0 0.7
2018-Apr-20 03:00N 51°16' E 004°14'1 1.2
2018-Apr-20 02:30N 51°17' E 004°15'0 0.4
2018-Apr-20 02:01N 51°17' E 004°15'3 6.9
2018-Apr-20 01:31N 51°20' E 004°16'5 9.8
2018-Apr-20 01:00N 51°23' E 004°10'612.0
2018-Apr-20 00:31N 51°26' E 004°01'714.3
2018-Apr-20 00:00N 51°21' E 003°52'713.7
2018-Apr-19 23:31N 51°24' E 003°43'510.7
2018-Apr-19 23:00N 51°26' E 003°35'5 9.9
2018-Apr-19 22:31N 51°25' E 003°27'815.7
2018-Apr-19 22:00N 51°24' E 003°14'715.0
2018-Apr-19 21:30N 51°25' E 003°02'714.3
2018-Apr-19 21:00N 51°32' E 003°05'816.3
2018-Apr-19 20:30N 51°39' E 003°11'2912.6
2018-Apr-19 18:14N 52°04' E 003°33'415.9
2018-Apr-19 17:57N 52°04' E 003°40'715.0
2018-Apr-19 17:30N 52°03' E 003°51'5 9.6
2018-Apr-19 17:00N 52°01' E 003°58'612.9
2018-Apr-19 16:31N 51°58' E 004°07'4 7.7
2018-Apr-19 16:00N 51°56' E 004°12'2 3.9
2018-Apr-19 15:28N 51°54' E 004°14'1 1.3
2018-Apr-19 14:58N 51°54' E 004°15'0 0.0
2018-Apr-19 14:28N 51°54' E 004°15'0 0.0
2018-Apr-19 13:58N 51°54' E 004°15'0 0.0
2018-Apr-19 13:28N 51°54' E 004°15'0 0.0
2018-Apr-19 12:58N 51°54' E 004°15'0 0.0
2018-Apr-19 12:28N 51°54' E 004°15'0 0.0
2018-Apr-19 11:58N 51°54' E 004°15'0 0.0
2018-Apr-19 11:28N 51°54' E 004°15'0 0.0
2018-Apr-19 10:58N 51°54' E 004°15'0 0.0
2018-Apr-19 10:28N 51°54' E 004°15'0 0.0
2018-Apr-19 09:58N 51°54' E 004°15'0 0.0
2018-Apr-19 09:28N 51°54' E 004°15'0 0.0
2018-Apr-19 08:58N 51°54' E 004°15'0 0.0
2018-Apr-19 08:28N 51°54' E 004°15'0 0.0
2018-Apr-19 07:58N 51°54' E 004°15'0 0.0
2018-Apr-19 07:28N 51°54' E 004°15'0 0.0
2018-Apr-19 06:58N 51°54' E 004°15'0 0.0
2018-Apr-19 06:28N 51°54' E 004°15'0 0.0
2018-Apr-19 05:58N 51°54' E 004°15'0 0.0
2018-Apr-19 05:28N 51°54' E 004°15'0 0.0
2018-Apr-19 04:58N 51°54' E 004°15'0 0.0
2018-Apr-19 04:28N 51°54' E 004°15'0 0.0
2018-Apr-19 03:58N 51°54' E 004°15'0 0.0
2018-Apr-19 03:28N 51°54' E 004°15'0 0.0
2018-Apr-19 02:58N 51°54' E 004°15'0 0.0
2018-Apr-19 02:28N 51°54' E 004°15'0 0.0
2018-Apr-19 01:58N 51°54' E 004°15'0 0.0
2018-Apr-19 01:28N 51°54' E 004°15'0 0.0
2018-Apr-19 00:58N 51°54' E 004°15'0 0.0
2018-Apr-19 00:30N 51°54' E 004°15'1 1.3
2018-Apr-19 00:00N 51°54' E 004°14'2 4.4
2018-Apr-18 23:30N 51°56' E 004°12'3 6.8
2018-Apr-18 23:00N 51°58' E 004°08'611.7
2018-Apr-18 22:30N 52°00' E 003°59'612.2
2018-Apr-18 22:00N 52°02' E 003°49'5 9.0
2018-Apr-18 21:30N 52°06' E 003°46'713.4
2018-Apr-18 21:00N 52°12' E 003°46'918.2
2018-Apr-18 20:30N 52°21' E 003°48'917.8
2018-Apr-18 20:00N 52°30' E 003°51'816.0
2018-Apr-18 19:30N 52°31' E 004°04'815.9
2018-Apr-18 19:00N 52°30' E 004°17'713.2
2018-Apr-18 18:31N 52°29' E 004°27'510.5
2018-Apr-18 18:01N 52°28' E 004°36'0 0.5
2018-Apr-18 17:31N 52°28' E 004°36'2 4.5
2018-Apr-18 17:00N 52°28' E 004°40'4 7.5
2018-Apr-18 16:30N 52°26' E 004°45'3 4.5
2018-Apr-18 15:57N 52°25' E 004°49'0 0.2
2018-Apr-18 15:27N 52°24' E 004°49'0 0.0
2018-Apr-18 14:57N 52°24' E 004°49'0 0.0
2018-Apr-18 14:27N 52°24' E 004°49'0 0.0
2018-Apr-18 13:57N 52°24' E 004°49'0 0.0
2018-Apr-18 13:27N 52°24' E 004°49'0 0.0
2018-Apr-18 12:57N 52°24' E 004°49'0 0.0
2018-Apr-18 12:27N 52°24' E 004°49'0 0.0
2018-Apr-18 11:57N 52°24' E 004°49'0 0.0
2018-Apr-18 11:25N 52°24' E 004°49'0 0.0
2018-Apr-18 10:55N 52°24' E 004°49'0 0.0
2018-Apr-18 10:27N 52°24' E 004°49'0 0.0
2018-Apr-18 09:57N 52°24' E 004°49'0 0.0
2018-Apr-18 09:27N 52°24' E 004°49'0 0.0
2018-Apr-18 08:57N 52°24' E 004°49'0 0.0
2018-Apr-18 08:28N 52°24' E 004°49'0 0.0
2018-Apr-18 07:58N 52°24' E 004°49'0 0.0
2018-Apr-18 07:28N 52°24' E 004°49'0 0.0
2018-Apr-18 06:58N 52°24' E 004°49'0 0.0
2018-Apr-18 06:28N 52°24' E 004°49'0 0.0
2018-Apr-18 05:58N 52°24' E 004°49'0 0.0
2018-Apr-18 05:28N 52°24' E 004°49'0 0.0
2018-Apr-18 04:58N 52°24' E 004°49'0 0.0
2018-Apr-18 04:28N 52°24' E 004°49'0 0.0
2018-Apr-18 04:00N 52°24' E 004°49'0 0.1
2018-Apr-18 03:30N 52°25' E 004°49'2 4.8
2018-Apr-18 03:00N 52°26' E 004°46'4 7.5
2018-Apr-18 02:30N 52°28' E 004°40'2 4.4
2018-Apr-18 02:01N 52°28' E 004°37'0 1.0
2018-Apr-18 01:31N 52°28' E 004°36'3 6.8
2018-Apr-18 01:01N 52°28' E 004°30'510.2
2018-Apr-18 00:31N 52°29' E 004°22'4 8.6
2018-Apr-18 00:01N 52°29' E 004°15'5 9.5
2018-Apr-17 23:30N 52°31' E 004°08'16916.3
2018-Apr-17 13:08N 54°26' E 000°41'216.1
2018-Apr-17 13:00N 54°27' E 000°37'815.9
2018-Apr-17 12:30N 54°30' E 000°25'816.1
2018-Apr-17 12:00N 54°34' E 000°13'816.0
2018-Apr-17 11:30N 54°38' E 000°01'815.8
2018-Apr-17 11:00N 54°42' W 000°11'2315.7
2018-Apr-17 09:34N 54°53' W 000°46'116.2
2018-Apr-17 09:30N 54°53' W 000°47'816.1
2018-Apr-17 09:00N 54°57' W 000°60'815.6
2018-Apr-17 08:30N 54°60' W 001°12'510.7
2018-Apr-17 08:00N 55°01' W 001°22'3 6.5
2018-Apr-17 07:30N 54°60' W 001°27'1 1.4
2018-Apr-17 07:00N 54°59' W 001°28'0 0.0
2018-Apr-17 06:29N 54°59' W 001°28'0 0.0
2018-Apr-17 05:56N 54°59' W 001°28'0 0.0
2018-Apr-17 05:28N 54°59' W 001°28'0 0.0
2018-Apr-17 04:55N 54°59' W 001°28'0 0.0
2018-Apr-17 04:28N 54°59' W 001°28'0 0.0
2018-Apr-17 03:59N 54°59' W 001°28'0 0.0
2018-Apr-17 03:29N 54°59' W 001°28'0 0.0
2018-Apr-17 02:56N 54°59' W 001°28'0 0.0
2018-Apr-17 02:26N 54°59' W 001°28'0 0.0
2018-Apr-17 01:59N 54°59' W 001°28'0 0.0
2018-Apr-17 01:28N 54°59' W 001°28'0 0.0
2018-Apr-17 00:58N 54°59' W 001°28'0 0.0
2018-Apr-17 00:28N 54°59' W 001°28'0 0.0
2018-Apr-16 23:59N 54°59' W 001°28'0 0.0
2018-Apr-16 23:29N 54°59' W 001°28'0 0.0
2018-Apr-16 22:59N 54°59' W 001°28'0 0.0
2018-Apr-16 22:28N 54°59' W 001°28'0 0.0
2018-Apr-16 21:59N 54°59' W 001°28'0 0.0
2018-Apr-16 21:29N 54°59' W 001°28'0 0.0
2018-Apr-16 20:52N 54°59' W 001°28'0 0.0
2018-Apr-16 20:26N 54°59' W 001°28'0 0.0
2018-Apr-16 19:58N 54°59' W 001°28'0 0.0
2018-Apr-16 19:29N 54°59' W 001°28'0 0.0
2018-Apr-16 18:56N 54°59' W 001°28'0 0.0
2018-Apr-16 18:28N 54°59' W 001°28'0 0.0
2018-Apr-16 17:58N 54°59' W 001°28'0 0.0
2018-Apr-16 17:28N 54°59' W 001°28'0 0.0
2018-Apr-16 16:56N 54°59' W 001°28'0 0.0
2018-Apr-16 16:29N 54°59' W 001°28'0 0.0
2018-Apr-16 15:58N 54°59' W 001°28'0 0.0
2018-Apr-16 15:29N 54°59' W 001°28'0 0.0
2018-Apr-16 14:58N 54°59' W 001°28'0 0.0
2018-Apr-16 14:28N 54°59' W 001°28'0 0.0
2018-Apr-16 13:59N 54°59' W 001°28'0 0.0
2018-Apr-16 13:29N 54°59' W 001°28'0 0.0
2018-Apr-16 12:59N 54°59' W 001°28'0 0.0
2018-Apr-16 12:29N 54°59' W 001°28'0 0.0
2018-Apr-16 11:59N 54°59' W 001°28'0 0.0
2018-Apr-16 11:25N 54°59' W 001°28'0 0.0
2018-Apr-16 10:59N 54°59' W 001°28'0 0.0
2018-Apr-16 10:29N 54°59' W 001°28'0 0.0
2018-Apr-16 09:59N 54°59' W 001°28'0 0.0
2018-Apr-16 09:30N 54°59' W 001°28'0 0.2
2018-Apr-16 09:00N 54°59' W 001°28'2 4.7
2018-Apr-16 08:30N 55°01' W 001°25'4 7.9
2018-Apr-16 08:00N 55°02' W 001°18'4 7.3
2018-Apr-16 07:30N 55°00' W 001°12'612.1
2018-Apr-16 07:00N 54°57' W 001°03'917.1
2018-Apr-16 06:30N 54°54' W 000°50'1516.8
2018-Apr-16 05:38N 54°47' W 000°27'216.5
2018-Apr-16 05:31N 54°46' W 000°24'816.6
2018-Apr-16 05:01N 54°42' W 000°12'816.2
2018-Apr-16 04:31N 54°38' E 000°01'816.2
2018-Apr-16 04:01N 54°34' E 000°13'816.3
2018-Apr-16 03:31N 54°30' E 000°26'816.5
2018-Apr-16 03:00N 54°26' E 000°38'11915.4
2018-Apr-15 19:16N 52°53' E 002°42'516.2
2018-Apr-15 18:59N 52°48' E 002°42'2316.9
2018-Apr-15 17:36N 52°25' E 002°42'3217.9
2018-Apr-15 15:51N 51°53' E 002°40'618.5
2018-Apr-15 15:30N 51°48' E 002°36'918.5
2018-Apr-15 15:00N 51°40' E 002°26'1221.5
2018-Apr-15 14:27N 51°31' E 002°14'715.8
2018-Apr-15 14:00N 51°24' E 002°11'919.0
2018-Apr-15 13:30N 51°15' E 002°06'1019.4
2018-Apr-15 13:00N 51°11' E 001°52'1020.3
2018-Apr-15 12:30N 51°04' E 001°41'1120.9
2018-Apr-15 12:00N 50°56' E 001°30'1021.0
2018-Apr-15 11:31N 50°46' E 001°25'1019.1
2018-Apr-15 11:01N 50°38' E 001°16'1019.2
2018-Apr-15 10:31N 50°32' E 001°04'918.6
2018-Apr-15 10:00N 50°27' E 000°52'918.8
2018-Apr-15 09:31N 50°27' E 000°37'1019.2
2018-Apr-15 09:00N 50°25' E 000°22'1019.8
2018-Apr-15 08:31N 50°22' E 000°08'1019.9
2018-Apr-15 08:01N 50°20' W 000°08'1020.1
2018-Apr-15 07:31N 50°17' W 000°23'1020.3
2018-Apr-15 07:00N 50°15' W 000°39'1020.3
2018-Apr-15 06:30N 50°12' W 000°54'1019.9
2018-Apr-15 06:00N 50°10' W 001°09'1019.2
2018-Apr-15 05:30N 50°07' W 001°23'918.6
2018-Apr-15 05:01N 50°05' W 001°37'918.2
2018-Apr-15 04:31N 50°02' W 001°51'1117.4
2018-Apr-15 03:53N 49°59' W 002°07'616.6
2018-Apr-15 03:30N 49°57' W 002°16'816.3
2018-Apr-15 03:00N 49°55' W 002°29'816.0
2018-Apr-15 02:30N 49°53' W 002°40'816.0
2018-Apr-15 02:00N 49°51' W 002°52'815.9
2018-Apr-15 01:30N 49°49' W 003°05'816.1
2018-Apr-15 01:00N 49°49' W 003°17'815.9
2018-Apr-15 00:30N 49°50' W 003°30'815.9
2018-Apr-14 23:59N 49°51' W 003°42'1116.0
2018-Apr-14 23:17N 49°47' W 003°58'716.1
2018-Apr-14 22:52N 49°47' W 004°09'616.2
2018-Apr-14 22:28N 49°46' W 004°19'1116.1
2018-Apr-14 21:47N 49°46' W 004°36'6114.1
2018-Apr-14 17:28N 50°13' W 006°01'1016.3
2018-Apr-14 16:50N 50°23' W 006°00'515.2
2018-Apr-14 16:30N 50°27' W 005°54'715.2
2018-Apr-14 16:00N 50°32' W 005°45'715.0
2018-Apr-14 15:30N 50°36' W 005°36'715.0
2018-Apr-14 15:01N 50°41' W 005°27'714.3
2018-Apr-14 14:30N 50°46' W 005°18'713.2
2018-Apr-14 14:00N 50°50' W 005°10'611.9
2018-Apr-14 13:30N 50°54' W 005°03'713.4
2018-Apr-14 13:00N 50°58' W 004°55'816.2
2018-Apr-14 12:30N 51°03' W 004°45'816.5
2018-Apr-14 12:00N 51°08' W 004°34'917.2
2018-Apr-14 11:29N 51°14' W 004°23'916.9
2018-Apr-14 10:58N 51°18' W 004°11'3119.1
2018-Apr-14 09:20N 51°21' W 003°21'514.3
2018-Apr-14 08:57N 51°22' W 003°12'715.5
2018-Apr-14 08:31N 51°25' W 003°03'816.4
2018-Apr-14 08:00N 51°29' W 002°51'5 9.5
2018-Apr-14 07:30N 51°30' W 002°44'0 0.2
2018-Apr-14 07:00N 51°30' W 002°43'0 0.7
2018-Apr-14 06:30N 51°30' W 002°43'0 0.0
2018-Apr-14 05:59N 51°30' W 002°43'0 0.0
2018-Apr-14 05:29N 51°30' W 002°43'0 0.0
2018-Apr-14 04:59N 51°30' W 002°43'0 0.0
2018-Apr-14 04:29N 51°30' W 002°43'0 0.0
2018-Apr-14 03:59N 51°30' W 002°43'0 0.0
2018-Apr-14 03:30N 51°30' W 002°43'0 0.0
2018-Apr-14 02:57N 51°30' W 002°43'0 0.0
2018-Apr-14 02:29N 51°30' W 002°43'0 0.0
2018-Apr-14 02:00N 51°30' W 002°43'0 0.0
2018-Apr-14 01:30N 51°30' W 002°43'0 0.0
2018-Apr-14 00:59N 51°30' W 002°43'0 0.0
2018-Apr-14 00:30N 51°30' W 002°43'0 0.0
2018-Apr-14 00:00N 51°30' W 002°43'0 0.0
2018-Apr-13 23:30N 51°30' W 002°43'0 0.0
2018-Apr-13 23:01N 51°30' W 002°43'0 0.0
2018-Apr-13 22:30N 51°30' W 002°43'0 0.0
2018-Apr-13 22:01N 51°30' W 002°43'0 0.0
2018-Apr-13 21:31N 51°30' W 002°43'0 0.0
2018-Apr-13 21:01N 51°30' W 002°43'0 0.0
2018-Apr-13 20:30N 51°30' W 002°43'0 0.0
2018-Apr-13 20:00N 51°30' W 002°43'0 0.6
2018-Apr-13 19:31N 51°30' W 002°43'0 0.2
2018-Apr-13 19:00N 51°30' W 002°43'0 0.5
2018-Apr-13 18:30N 51°30' W 002°44'1 2.1
2018-Apr-13 18:01N 51°30' W 002°45'711.0
2018-Apr-13 17:23N 51°27' W 002°56'514.2
2018-Apr-13 17:00N 51°24' W 003°03'713.5
2018-Apr-13 16:27N 51°21' W 003°14'42 9.3
2018-Apr-13 11:56N 51°15' W 004°20'817.9
2018-Apr-13 11:30N 51°10' W 004°29'917.4
2018-Apr-13 11:00N 51°04' W 004°40'816.9
2018-Apr-13 10:30N 50°59' W 004°51'816.6
2018-Apr-13 10:00N 50°54' W 005°02'816.6
2018-Apr-13 09:30N 50°49' W 005°12'816.5
2018-Apr-13 09:00N 50°44' W 005°23'816.4
2018-Apr-13 08:30N 50°39' W 005°33'  
Track history (hours):
 
Tides and Currents Weather Stations Pressure Air Temp Water Temp Dewpoint Dewpoint Depression Visibility Wind Speed Wind Dir Waves Ship Positions

Hoegh Traveller

Last reported at 2018-Apr-22 18:00 UTC. Time now 2018-Apr-22 18:19 UTC.
Position N 53°35' E 008°33'.

Length 199 m; draft 9.3 m.

MMSI: 259075000.

Date/timePositionNaut miles runAvg speedWind from/ knotsBaromVisibWave heightAir tempDewpointWater temp
2018-Apr-22 18:00N 53°35' E 008°33'0 0.0
2018-Apr-22 17:30N 53°35' E 008°33'0 0.0
2018-Apr-22 17:00N 53°35' E 008°33'0 0.0
2018-Apr-22 16:30N 53°35' E 008°33'0 0.0
2018-Apr-22 16:00N 53°35' E 008°33'0 0.0
2018-Apr-22 15:30N 53°35' E 008°33'0 0.0
2018-Apr-22 14:58N 53°35' E 008°33'0 0.0
2018-Apr-22 14:30N 53°35' E 008°33'0 0.0
2018-Apr-22 14:00N 53°35' E 008°33'0 0.0
2018-Apr-22 13:30N 53°35' E 008°33'0 0.4
2018-Apr-22 13:00N 53°34' E 008°33'0 0.2
2018-Apr-22 12:30N 53°34' E 008°33'0 0.9
2018-Apr-22 12:00N 53°34' E 008°33'2 4.8
2018-Apr-22 11:30N 53°36' E 008°30'714.4
2018-Apr-22 11:00N 53°41' E 008°22'815.6
2018-Apr-22 10:30N 53°46' E 008°11'814.3
2018-Apr-22 09:57N 53°51' E 008°01'812.5
2018-Apr-22 09:20N 53°52' E 007°48'411.4
2018-Apr-22 09:00N 53°53' E 007°42'1114.2
2018-Apr-22 08:14N 53°53' E 007°24'3015.6
2018-Apr-22 06:18N 53°46' E 006°34'515.4
2018-Apr-22 06:00N 53°45' E 006°26'1315.7
2018-Apr-22 05:11N 53°42' E 006°05'415.8
2018-Apr-22 04:55N 53°40' E 005°59'915.9
2018-Apr-22 04:22N 53°37' E 005°45'615.8
2018-Apr-22 04:00N 53°36' E 005°35'815.7
2018-Apr-22 03:31N 53°33' E 005°23'815.7
2018-Apr-22 03:01N 53°31' E 005°10'816.3
2018-Apr-22 02:30N 53°28' E 004°57'1016.2
2018-Apr-22 01:52N 53°23' E 004°42'616.7
2018-Apr-22 01:30N 53°18' E 004°38'1016.8
2018-Apr-22 00:55N 53°09' E 004°30'716.8
2018-Apr-22 00:31N 53°03' E 004°24'816.8
2018-Apr-22 00:00N 52°56' E 004°17'916.7
2018-Apr-21 23:29N 52°48' E 004°11'816.8
2018-Apr-21 23:00N 52°42' E 004°01'816.8
2018-Apr-21 22:31N 52°36' E 003°52'816.9
2018-Apr-21 22:00N 52°30' E 003°43'917.3
2018-Apr-21 21:30N 52°23' E 003°35'917.5
2018-Apr-21 21:00N 52°15' E 003°29'1017.2
2018-Apr-21 20:24N 52°05' E 003°25'717.2
2018-Apr-21 20:00N 51°58' E 003°24'917.0
2018-Apr-21 19:29N 51°49' E 003°18'613.2
2018-Apr-21 19:00N 51°43' E 003°17'714.9
2018-Apr-21 18:31N 51°37' E 003°22'714.8
2018-Apr-21 18:00N 51°30' E 003°28'612.0
2018-Apr-21 17:30N 51°26' E 003°35'5 9.3
2018-Apr-21 17:00N 51°25' E 003°42'611.4
2018-Apr-21 16:30N 51°21' E 003°48'510.6
2018-Apr-21 16:00N 51°23' E 003°56'4 8.4
2018-Apr-21 15:30N 51°25' E 004°02'5 9.8
2018-Apr-21 15:00N 51°22' E 004°08'4 7.8
2018-Apr-21 14:30N 51°22' E 004°14'4 7.7
2018-Apr-21 14:00N 51°18' E 004°16'2 3.1
2018-Apr-21 13:30N 51°17' E 004°15'0 0.0
2018-Apr-21 13:00N 51°17' E 004°15'0 0.2
2018-Apr-21 12:23N 51°17' E 004°15'0 1.0
2018-Apr-21 12:00N 51°16' E 004°14'0 0.9
2018-Apr-21 11:30N 51°16' E 004°14'0 0.0
2018-Apr-21 11:00N 51°16' E 004°14'0 0.0
2018-Apr-21 10:31N 51°16' E 004°14'0 0.0
2018-Apr-21 10:00N 51°16' E 004°14'0 0.0
2018-Apr-21 09:29N 51°16' E 004°14'0 0.0
2018-Apr-21 08:59N 51°16' E 004°14'0 0.0
2018-Apr-21 08:24N 51°16' E 004°14'0 0.0
2018-Apr-21 08:00N 51°16' E 004°14'0 0.0
2018-Apr-21 07:30N 51°16' E 004°14'0 0.0
2018-Apr-21 07:00N 51°16' E 004°14'0 0.0
2018-Apr-21 06:31N 51°16' E 004°14'0 0.0
2018-Apr-21 06:00N 51°16' E 004°14'0 0.0
2018-Apr-21 05:30N 51°16' E 004°14'0 0.0
2018-Apr-21 05:00N 51°16' E 004°14'0 0.0
2018-Apr-21 04:31N 51°16' E 004°14'0 0.0
2018-Apr-21 03:55N 51°16' E 004°14'0 0.0
2018-Apr-21 03:30N 51°16' E 004°14'0 0.0
2018-Apr-21 03:00N 51°16' E 004°14'0 0.0
2018-Apr-21 02:30N 51°16' E 004°14'0 0.0
2018-Apr-21 02:00N 51°16' E 004°14'0 0.0
2018-Apr-21 01:30N 51°16' E 004°14'0 0.0
2018-Apr-21 01:00N 51°16' E 004°14'0 0.0
2018-Apr-21 00:25N 51°16' E 004°14'0 0.0
2018-Apr-21 00:00N 51°16' E 004°14'0 0.0
2018-Apr-20 23:30N 51°16' E 004°14'0 0.0
2018-Apr-20 23:00N 51°16' E 004°14'0 0.0
2018-Apr-20 22:30N 51°16' E 004°14'0 0.0
2018-Apr-20 22:00N 51°16' E 004°14'0 0.0
2018-Apr-20 21:20N 51°16' E 004°14'0 0.0
2018-Apr-20 21:00N 51°16' E 004°14'0 0.0
2018-Apr-20 20:30N 51°16' E 004°14'0 0.0
2018-Apr-20 20:00N 51°16' E 004°14'0 0.0
2018-Apr-20 19:31N 51°16' E 004°14'0 0.0
2018-Apr-20 19:00N 51°16' E 004°14'0 0.0
2018-Apr-20 18:30N 51°16' E 004°14'0 0.0
2018-Apr-20 18:00N 51°16' E 004°14'0 0.0
2018-Apr-20 17:30N 51°16' E 004°14'0 0.0
2018-Apr-20 17:00N 51°16' E 004°14'0 0.0
2018-Apr-20 16:26N 51°16' E 004°14'0 0.0
2018-Apr-20 16:00N 51°16' E 004°14'0 0.0
2018-Apr-20 15:26N 51°16' E 004°14'0 0.0
2018-Apr-20 15:00N 51°16' E 004°14'0 0.0
2018-Apr-20 14:30N 51°16' E 004°14'0 0.0
2018-Apr-20 14:00N 51°16' E 004°14'0 0.0
2018-Apr-20 13:30N 51°16' E 004°14'0 0.0
2018-Apr-20 13:00N 51°16' E 004°14'0 0.0
2018-Apr-20 12:31N 51°16' E 004°14'0 0.0
2018-Apr-20 12:00N 51°16' E 004°14'0 0.0
2018-Apr-20 11:30N 51°16' E 004°14'0 0.0
2018-Apr-20 11:00N 51°16' E 004°14'0 0.0
2018-Apr-20 10:30N 51°16' E 004°14'0 0.0
2018-Apr-20 10:00N 51°16' E 004°14'0 0.0
2018-Apr-20 09:26N 51°16' E 004°14'0 0.0
2018-Apr-20 08:56N 51°16' E 004°14'0 0.0
2018-Apr-20 08:27N 51°16' E 004°14'0 0.0
2018-Apr-20 07:58N 51°16' E 004°14'0 0.0
2018-Apr-20 07:28N 51°16' E 004°14'0 0.0
2018-Apr-20 06:58N 51°16' E 004°14'0 0.0
2018-Apr-20 06:28N 51°16' E 004°14'0 0.0
2018-Apr-20 05:58N 51°16' E 004°14'0 0.0
2018-Apr-20 05:28N 51°16' E 004°14'0 0.0
2018-Apr-20 04:58N 51°16' E 004°14'0 0.0
2018-Apr-20 04:28N 51°16' E 004°14'0 0.0
2018-Apr-20 03:58N 51°16' E 004°14'0 0.0
2018-Apr-20 03:30N 51°16' E 004°14'0 0.7
2018-Apr-20 03:00N 51°16' E 004°14'1 1.2
2018-Apr-20 02:30N 51°17' E 004°15'0 0.4
2018-Apr-20 02:01N 51°17' E 004°15'3 6.9
2018-Apr-20 01:31N 51°20' E 004°16'5 9.8
2018-Apr-20 01:00N 51°23' E 004°10'612.0
2018-Apr-20 00:31N 51°26' E 004°01'714.3
2018-Apr-20 00:00N 51°21' E 003°52'713.7
2018-Apr-19 23:31N 51°24' E 003°43'510.7
2018-Apr-19 23:00N 51°26' E 003°35'5 9.9
2018-Apr-19 22:31N 51°25' E 003°27'815.7
2018-Apr-19 22:00N 51°24' E 003°14'715.0
2018-Apr-19 21:30N 51°25' E 003°02'714.3
2018-Apr-19 21:00N 51°32' E 003°05'816.3
2018-Apr-19 20:30N 51°39' E 003°11'2912.6
2018-Apr-19 18:14N 52°04' E 003°33'415.9
2018-Apr-19 17:57N 52°04' E 003°40'715.0
2018-Apr-19 17:30N 52°03' E 003°51'5 9.6
2018-Apr-19 17:00N 52°01' E 003°58'612.9
2018-Apr-19 16:31N 51°58' E 004°07'4 7.7
2018-Apr-19 16:00N 51°56' E 004°12'2 3.9
2018-Apr-19 15:28N 51°54' E 004°14'1 1.3
2018-Apr-19 14:58N 51°54' E 004°15'0 0.0
2018-Apr-19 14:28N 51°54' E 004°15'0 0.0
2018-Apr-19 13:58N 51°54' E 004°15'0 0.0
2018-Apr-19 13:28N 51°54' E 004°15'0 0.0
2018-Apr-19 12:58N 51°54' E 004°15'0 0.0
2018-Apr-19 12:28N 51°54' E 004°15'0 0.0
2018-Apr-19 11:58N 51°54' E 004°15'0 0.0
2018-Apr-19 11:28N 51°54' E 004°15'0 0.0
2018-Apr-19 10:58N 51°54' E 004°15'0 0.0
2018-Apr-19 10:28N 51°54' E 004°15'0 0.0
2018-Apr-19 09:58N 51°54' E 004°15'0 0.0
2018-Apr-19 09:28N 51°54' E 004°15'0 0.0
2018-Apr-19 08:58N 51°54' E 004°15'0 0.0
2018-Apr-19 08:28N 51°54' E 004°15'0 0.0
2018-Apr-19 07:58N 51°54' E 004°15'0 0.0
2018-Apr-19 07:28N 51°54' E 004°15'0 0.0
2018-Apr-19 06:58N 51°54' E 004°15'0 0.0
2018-Apr-19 06:28N 51°54' E 004°15'0 0.0
2018-Apr-19 05:58N 51°54' E 004°15'0 0.0
2018-Apr-19 05:28N 51°54' E 004°15'0 0.0
2018-Apr-19 04:58N 51°54' E 004°15'0 0.0
2018-Apr-19 04:28N 51°54' E 004°15'0 0.0
2018-Apr-19 03:58N 51°54' E 004°15'0 0.0
2018-Apr-19 03:28N 51°54' E 004°15'0 0.0
2018-Apr-19 02:58N 51°54' E 004°15'0 0.0
2018-Apr-19 02:28N 51°54' E 004°15'0 0.0
2018-Apr-19 01:58N 51°54' E 004°15'0 0.0
2018-Apr-19 01:28N 51°54' E 004°15'0 0.0
2018-Apr-19 00:58N 51°54' E 004°15'0 0.0
2018-Apr-19 00:30N 51°54' E 004°15'1 1.3
2018-Apr-19 00:00N 51°54' E 004°14'2 4.4
2018-Apr-18 23:30N 51°56' E 004°12'3 6.8
2018-Apr-18 23:00N 51°58' E 004°08'611.7
2018-Apr-18 22:30N 52°00' E 003°59'612.2
2018-Apr-18 22:00N 52°02' E 003°49'5 9.0
2018-Apr-18 21:30N 52°06' E 003°46'713.4
2018-Apr-18 21:00N 52°12' E 003°46'918.2
2018-Apr-18 20:30N 52°21' E 003°48'917.8
2018-Apr-18 20:00N 52°30' E 003°51'816.0
2018-Apr-18 19:30N 52°31' E 004°04'815.9
2018-Apr-18 19:00N 52°30' E 004°17'713.2
2018-Apr-18 18:31N 52°29' E 004°27'510.5
2018-Apr-18 18:01N 52°28' E 004°36'0 0.5
2018-Apr-18 17:31N 52°28' E 004°36'2 4.5
2018-Apr-18 17:00N 52°28' E 004°40'4 7.5
2018-Apr-18 16:30N 52°26' E 004°45'3 4.5
2018-Apr-18 15:57N 52°25' E 004°49'0 0.2
2018-Apr-18 15:27N 52°24' E 004°49'0 0.0
2018-Apr-18 14:57N 52°24' E 004°49'0 0.0
2018-Apr-18 14:27N 52°24' E 004°49'0 0.0
2018-Apr-18 13:57N 52°24' E 004°49'0 0.0
2018-Apr-18 13:27N 52°24' E 004°49'0 0.0
2018-Apr-18 12:57N 52°24' E 004°49'0 0.0
2018-Apr-18 12:27N 52°24' E 004°49'0 0.0
2018-Apr-18 11:57N 52°24' E 004°49'0 0.0
2018-Apr-18 11:25N 52°24' E 004°49'0 0.0
2018-Apr-18 10:55N 52°24' E 004°49'0 0.0
2018-Apr-18 10:27N 52°24' E 004°49'0 0.0
2018-Apr-18 09:57N 52°24' E 004°49'0 0.0
2018-Apr-18 09:27N 52°24' E 004°49'0 0.0
2018-Apr-18 08:57N 52°24' E 004°49'0 0.0
2018-Apr-18 08:28N 52°24' E 004°49'0 0.0
2018-Apr-18 07:58N 52°24' E 004°49'0 0.0
2018-Apr-18 07:28N 52°24' E 004°49'0 0.0
2018-Apr-18 06:58N 52°24' E 004°49'0 0.0
2018-Apr-18 06:28N 52°24' E 004°49'0 0.0
2018-Apr-18 05:58N 52°24' E 004°49'0 0.0
2018-Apr-18 05:28N 52°24' E 004°49'0 0.0
2018-Apr-18 04:58N 52°24' E 004°49'0 0.0
2018-Apr-18 04:28N 52°24' E 004°49'0 0.0
2018-Apr-18 04:00N 52°24' E 004°49'0 0.1
2018-Apr-18 03:30N 52°25' E 004°49'2 4.8
2018-Apr-18 03:00N 52°26' E 004°46'4 7.5
2018-Apr-18 02:30N 52°28' E 004°40'2 4.4
2018-Apr-18 02:01N 52°28' E 004°37'0 1.0
2018-Apr-18 01:31N 52°28' E 004°36'3 6.8
2018-Apr-18 01:01N 52°28' E 004°30'510.2
2018-Apr-18 00:31N 52°29' E 004°22'4 8.6
2018-Apr-18 00:01N 52°29' E 004°15'5 9.5
2018-Apr-17 23:30N 52°31' E 004°08'16916.3
2018-Apr-17 13:08N 54°26' E 000°41'216.1
2018-Apr-17 13:00N 54°27' E 000°37'815.9
2018-Apr-17 12:30N 54°30' E 000°25'816.1
2018-Apr-17 12:00N 54°34' E 000°13'816.0
2018-Apr-17 11:30N 54°38' E 000°01'815.8
2018-Apr-17 11:00N 54°42' W 000°11'2315.7
2018-Apr-17 09:34N 54°53' W 000°46'116.2
2018-Apr-17 09:30N 54°53' W 000°47'816.1
2018-Apr-17 09:00N 54°57' W 000°60'815.6
2018-Apr-17 08:30N 54°60' W 001°12'510.7
2018-Apr-17 08:00N 55°01' W 001°22'3 6.5
2018-Apr-17 07:30N 54°60' W 001°27'1 1.4
2018-Apr-17 07:00N 54°59' W 001°28'0 0.0
2018-Apr-17 06:29N 54°59' W 001°28'0 0.0
2018-Apr-17 05:56N 54°59' W 001°28'0 0.0
2018-Apr-17 05:28N 54°59' W 001°28'0 0.0
2018-Apr-17 04:55N 54°59' W 001°28'0 0.0
2018-Apr-17 04:28N 54°59' W 001°28'0 0.0
2018-Apr-17 03:59N 54°59' W 001°28'0 0.0
2018-Apr-17 03:29N 54°59' W 001°28'0 0.0
2018-Apr-17 02:56N 54°59' W 001°28'0 0.0
2018-Apr-17 02:26N 54°59' W 001°28'0 0.0
2018-Apr-17 01:59N 54°59' W 001°28'0 0.0
2018-Apr-17 01:28N 54°59' W 001°28'0 0.0
2018-Apr-17 00:58N 54°59' W 001°28'0 0.0
2018-Apr-17 00:28N 54°59' W 001°28'0 0.0
2018-Apr-16 23:59N 54°59' W 001°28'0 0.0
2018-Apr-16 23:29N 54°59' W 001°28'0 0.0
2018-Apr-16 22:59N 54°59' W 001°28'0 0.0
2018-Apr-16 22:28N 54°59' W 001°28'0 0.0
2018-Apr-16 21:59N 54°59' W 001°28'0 0.0
2018-Apr-16 21:29N 54°59' W 001°28'0 0.0
2018-Apr-16 20:52N 54°59' W 001°28'0 0.0
2018-Apr-16 20:26N 54°59' W 001°28'0 0.0
2018-Apr-16 19:58N 54°59' W 001°28'0 0.0
2018-Apr-16 19:29N 54°59' W 001°28'0 0.0
2018-Apr-16 18:56N 54°59' W 001°28'0 0.0
2018-Apr-16 18:28N 54°59' W 001°28'0 0.0
2018-Apr-16 17:58N 54°59' W 001°28'0 0.0
2018-Apr-16 17:28N 54°59' W 001°28'0 0.0
2018-Apr-16 16:56N 54°59' W 001°28'0 0.0
2018-Apr-16 16:29N 54°59' W 001°28'0 0.0
2018-Apr-16 15:58N 54°59' W 001°28'0 0.0
2018-Apr-16 15:29N 54°59' W 001°28'0 0.0
2018-Apr-16 14:58N 54°59' W 001°28'0 0.0
2018-Apr-16 14:28N 54°59' W 001°28'0 0.0
2018-Apr-16 13:59N 54°59' W 001°28'0 0.0
2018-Apr-16 13:29N 54°59' W 001°28'0 0.0
2018-Apr-16 12:59N 54°59' W 001°28'0 0.0
2018-Apr-16 12:29N 54°59' W 001°28'0 0.0
2018-Apr-16 11:59N 54°59' W 001°28'0 0.0
2018-Apr-16 11:25N 54°59' W 001°28'0 0.0
2018-Apr-16 10:59N 54°59' W 001°28'0 0.0
2018-Apr-16 10:29N 54°59' W 001°28'0 0.0
2018-Apr-16 09:59N 54°59' W 001°28'0 0.0
2018-Apr-16 09:30N 54°59' W 001°28'0 0.2
2018-Apr-16 09:00N 54°59' W 001°28'2 4.7
2018-Apr-16 08:30N 55°01' W 001°25'4 7.9
2018-Apr-16 08:00N 55°02' W 001°18'4 7.3
2018-Apr-16 07:30N 55°00' W 001°12'612.1
2018-Apr-16 07:00N 54°57' W 001°03'917.1
2018-Apr-16 06:30N 54°54' W 000°50'1516.8
2018-Apr-16 05:38N 54°47' W 000°27'216.5
2018-Apr-16 05:31N 54°46' W 000°24'816.6
2018-Apr-16 05:01N 54°42' W 000°12'816.2
2018-Apr-16 04:31N 54°38' E 000°01'816.2
2018-Apr-16 04:01N 54°34' E 000°13'816.3
2018-Apr-16 03:31N 54°30' E 000°26'816.5
2018-Apr-16 03:00N 54°26' E 000°38'11915.4
2018-Apr-15 19:16N 52°53' E 002°42'516.2
2018-Apr-15 18:59N 52°48' E 002°42'2316.9
2018-Apr-15 17:36N 52°25' E 002°42'3217.9
2018-Apr-15 15:51N 51°53' E 002°40'618.5
2018-Apr-15 15:30N 51°48' E 002°36'918.5
2018-Apr-15 15:00N 51°40' E 002°26'1221.5
2018-Apr-15 14:27N 51°31' E 002°14'715.8
2018-Apr-15 14:00N 51°24' E 002°11'919.0
2018-Apr-15 13:30N 51°15' E 002°06'1019.4
2018-Apr-15 13:00N 51°11' E 001°52'1020.3
2018-Apr-15 12:30N 51°04' E 001°41'1120.9
2018-Apr-15 12:00N 50°56' E 001°30'1021.0
2018-Apr-15 11:31N 50°46' E 001°25'1019.1
2018-Apr-15 11:01N 50°38' E 001°16'1019.2
2018-Apr-15 10:31N 50°32' E 001°04'918.6
2018-Apr-15 10:00N 50°27' E 000°52'918.8
2018-Apr-15 09:31N 50°27' E 000°37'1019.2
2018-Apr-15 09:00N 50°25' E 000°22'1019.8
2018-Apr-15 08:31N 50°22' E 000°08'1019.9
2018-Apr-15 08:01N 50°20' W 000°08'1020.1
2018-Apr-15 07:31N 50°17' W 000°23'1020.3
2018-Apr-15 07:00N 50°15' W 000°39'1020.3
2018-Apr-15 06:30N 50°12' W 000°54'1019.9
2018-Apr-15 06:00N 50°10' W 001°09'1019.2
2018-Apr-15 05:30N 50°07' W 001°23'918.6
2018-Apr-15 05:01N 50°05' W 001°37'918.2
2018-Apr-15 04:31N 50°02' W 001°51'1117.4
2018-Apr-15 03:53N 49°59' W 002°07'616.6
2018-Apr-15 03:30N 49°57' W 002°16'816.3
2018-Apr-15 03:00N 49°55' W 002°29'816.0
2018-Apr-15 02:30N 49°53' W 002°40'816.0
2018-Apr-15 02:00N 49°51' W 002°52'815.9
2018-Apr-15 01:30N 49°49' W 003°05'816.1
2018-Apr-15 01:00N 49°49' W 003°17'815.9
2018-Apr-15 00:30N 49°50' W 003°30'815.9
2018-Apr-14 23:59N 49°51' W 003°42'1116.0
2018-Apr-14 23:17N 49°47' W 003°58'716.1
2018-Apr-14 22:52N 49°47' W 004°09'616.2
2018-Apr-14 22:28N 49°46' W 004°19'1116.1
2018-Apr-14 21:47N 49°46' W 004°36'6114.1
2018-Apr-14 17:28N 50°13' W 006°01'1016.3
2018-Apr-14 16:50N 50°23' W 006°00'515.2
2018-Apr-14 16:30N 50°27' W 005°54'715.2
2018-Apr-14 16:00N 50°32' W 005°45'715.0
2018-Apr-14 15:30N 50°36' W 005°36'715.0
2018-Apr-14 15:01N 50°41' W 005°27'714.3
2018-Apr-14 14:30N 50°46' W 005°18'713.2
2018-Apr-14 14:00N 50°50' W 005°10'611.9
2018-Apr-14 13:30N 50°54' W 005°03'713.4
2018-Apr-14 13:00N 50°58' W 004°55'816.2
2018-Apr-14 12:30N 51°03' W 004°45'816.5
2018-Apr-14 12:00N 51°08' W 004°34'917.2
2018-Apr-14 11:29N 51°14' W 004°23'916.9
2018-Apr-14 10:58N 51°18' W 004°11'3119.1
2018-Apr-14 09:20N 51°21' W 003°21'514.3
2018-Apr-14 08:57N 51°22' W 003°12'715.5
2018-Apr-14 08:31N 51°25' W 003°03'816.4
2018-Apr-14 08:00N 51°29' W 002°51'5 9.5
2018-Apr-14 07:30N 51°30' W 002°44'0 0.2
2018-Apr-14 07:00N 51°30' W 002°43'0 0.7
2018-Apr-14 06:30N 51°30' W 002°43'0 0.0
2018-Apr-14 05:59N 51°30' W 002°43'0 0.0
2018-Apr-14 05:29N 51°30' W 002°43'0 0.0
2018-Apr-14 04:59N 51°30' W 002°43'0 0.0
2018-Apr-14 04:29N 51°30' W 002°43'0 0.0
2018-Apr-14 03:59N 51°30' W 002°43'0 0.0
2018-Apr-14 03:30N 51°30' W 002°43'0 0.0
2018-Apr-14 02:57N 51°30' W 002°43'0 0.0
2018-Apr-14 02:29N 51°30' W 002°43'0 0.0
2018-Apr-14 02:00N 51°30' W 002°43'0 0.0
2018-Apr-14 01:30N 51°30' W 002°43'0 0.0
2018-Apr-14 00:59N 51°30' W 002°43'0 0.0
2018-Apr-14 00:30N 51°30' W 002°43'0 0.0
2018-Apr-14 00:00N 51°30' W 002°43'0 0.0
2018-Apr-13 23:30N 51°30' W 002°43'0 0.0
2018-Apr-13 23:01N 51°30' W 002°43'0 0.0
2018-Apr-13 22:30N 51°30' W 002°43'0 0.0
2018-Apr-13 22:01N 51°30' W 002°43'0 0.0
2018-Apr-13 21:31N 51°30' W 002°43'0 0.0
2018-Apr-13 21:01N 51°30' W 002°43'0 0.0
2018-Apr-13 20:30N 51°30' W 002°43'0 0.0
2018-Apr-13 20:00N 51°30' W 002°43'0 0.6
2018-Apr-13 19:31N 51°30' W 002°43'0 0.2
2018-Apr-13 19:00N 51°30' W 002°43'0 0.5
2018-Apr-13 18:30N 51°30' W 002°44'1 2.1
2018-Apr-13 18:01N 51°30' W 002°45'711.0
2018-Apr-13 17:23N 51°27' W 002°56'514.2
2018-Apr-13 17:00N 51°24' W 003°03'713.5
2018-Apr-13 16:27N 51°21' W 003°14'42 9.3
2018-Apr-13 11:56N 51°15' W 004°20'817.9
2018-Apr-13 11:30N 51°10' W 004°29'917.4
2018-Apr-13 11:00N 51°04' W 004°40'816.9
2018-Apr-13 10:30N 50°59' W 004°51'816.6
2018-Apr-13 10:00N 50°54' W 005°02'816.6
2018-Apr-13 09:30N 50°49' W 005°12'816.5
2018-Apr-13 09:00N 50°44' W 005°23'816.4
2018-Apr-13 08:30N 50°39' W 005°33'  

Dump ship's entire track history